createdAt,value
2022-08-02T00:01:00.641Z,19.56
2022-08-02T00:06:03.389Z,19.47
2022-08-02T00:11:06.102Z,19.43
2022-08-02T00:16:10.201Z,19.40
2022-08-02T00:21:19.483Z,19.33
2022-08-02T00:26:22.179Z,19.30
2022-08-02T00:31:26.457Z,19.21
2022-08-02T00:36:29.323Z,19.06
2022-08-02T00:41:32.142Z,18.97
2022-08-02T00:46:36.237Z,18.95
2022-08-02T00:51:39.167Z,18.97
2022-08-02T00:56:49.405Z,18.89
2022-08-02T01:01:57.095Z,18.89
2022-08-02T01:07:01.651Z,18.87
2022-08-02T01:12:04.616Z,18.86
2022-08-02T01:17:11.850Z,18.92
2022-08-02T01:23:00.536Z,18.96
2022-08-02T01:28:21.769Z,18.86
2022-08-02T01:33:27.222Z,18.86
2022-08-02T01:38:34.268Z,18.83
2022-08-02T01:43:39.429Z,18.95
2022-08-02T01:48:43.695Z,18.94
2022-08-02T01:53:49.002Z,18.91
2022-08-02T01:58:53.389Z,18.88
2022-08-02T02:03:56.262Z,18.84
2022-08-02T02:09:00.406Z,18.83
2022-08-02T02:14:05.612Z,18.60
2022-08-02T02:19:09.053Z,18.49
2022-08-02T02:24:12.152Z,18.54
2022-08-02T02:29:17.784Z,18.48
2022-08-02T02:34:26.723Z,18.43
2022-08-02T02:39:30.059Z,18.38
2022-08-02T02:44:34.616Z,18.33
2022-08-02T02:49:38.307Z,18.26
2022-08-02T02:54:41.529Z,18.19
2022-08-02T02:59:49.246Z,18.12
2022-08-02T03:04:57.113Z,18.04
2022-08-02T03:10:00.762Z,17.98
2022-08-02T03:15:06.873Z,17.91
2022-08-02T03:20:14.650Z,17.97
2022-08-02T03:25:18.322Z,17.95
2022-08-02T03:30:24.809Z,17.91
2022-08-02T03:35:27.559Z,17.93
2022-08-02T03:40:31.583Z,17.90
2022-08-02T03:45:36.004Z,18.02
2022-08-02T03:50:39.414Z,18.06
2022-08-02T03:55:42.158Z,17.96
2022-08-02T04:00:46.635Z,18.02
2022-08-02T04:06:03.162Z,17.99
2022-08-02T04:11:24.410Z,17.92
2022-08-02T04:16:35.672Z,17.88
2022-08-02T04:21:50.419Z,17.93
2022-08-02T04:26:57.803Z,17.95
2022-08-02T04:32:06.264Z,18.07
2022-08-02T04:37:09.077Z,18.15
2022-08-02T04:42:12.056Z,18.18
2022-08-02T04:47:16.421Z,18.22
2022-08-02T04:52:19.119Z,18.31
2022-08-02T04:57:39.543Z,18.31
2022-08-02T05:02:57.482Z,18.39
2022-08-02T05:08:00.609Z,18.37
2022-08-02T05:13:05.535Z,18.50
2022-08-02T05:18:09.682Z,18.70
2022-08-02T05:23:12.890Z,18.79
2022-08-02T05:28:15.639Z,18.89
2022-08-02T05:33:19.696Z,19.01
2022-08-02T05:38:26.047Z,19.04
2022-08-02T05:43:28.949Z,19.01
2022-08-02T05:48:33.107Z,19.02
2022-08-02T05:53:39.959Z,19.27
2022-08-02T05:58:51.394Z,19.43
2022-08-02T06:03:58.533Z,19.53
2022-08-02T06:09:04.194Z,19.59
2022-08-02T06:14:07.700Z,19.54
2022-08-02T06:19:13.195Z,19.71
2022-08-02T06:24:19.075Z,19.80
2022-08-02T06:29:23.078Z,19.86
2022-08-02T06:34:27.576Z,19.80
2022-08-02T06:39:33.695Z,19.80
2022-08-02T06:44:47.871Z,19.93
2022-08-02T06:49:56.574Z,20.08
2022-08-02T06:55:00.793Z,20.14
2022-08-02T07:00:06.925Z,20.26
2022-08-02T07:05:11.447Z,20.35
2022-08-02T07:10:14.766Z,20.43
2022-08-02T07:15:17.546Z,20.38
2022-08-02T07:20:21.872Z,20.32
2022-08-02T07:25:24.981Z,20.43
2022-08-02T07:30:27.912Z,20.47
2022-08-02T07:35:32.108Z,20.56
2022-08-02T07:40:37.638Z,20.57
2022-08-02T07:45:55.815Z,20.58
2022-08-02T07:51:05.080Z,20.62
2022-08-02T07:56:07.876Z,20.73
2022-08-02T08:01:10.687Z,20.83
2022-08-02T08:06:14.975Z,20.94
2022-08-02T08:11:19.164Z,21.02
2022-08-02T08:16:22.102Z,21.09
2022-08-02T08:21:26.248Z,21.10
2022-08-02T08:26:29.112Z,21.18
2022-08-02T08:31:31.857Z,21.25
2022-08-02T08:36:35.957Z,21.32
2022-08-02T08:41:38.759Z,21.34
2022-08-02T08:46:44.088Z,21.45
2022-08-02T08:51:48.401Z,21.70
2022-08-02T08:56:52.732Z,21.90
2022-08-02T09:01:56.176Z,21.94
2022-08-02T09:07:00.362Z,22.01
2022-08-02T09:12:15.305Z,22.02
2022-08-02T09:17:21.894Z,22.13
2022-08-02T09:22:26.179Z,22.13
2022-08-02T09:27:29.135Z,22.38
2022-08-02T09:32:34.610Z,22.39
2022-08-02T09:37:38.742Z,22.46
2022-08-02T09:43:00.467Z,22.64
2022-08-02T09:48:03.818Z,22.64
2022-08-02T09:53:07.310Z,22.73
2022-08-02T09:58:21.475Z,22.76
2022-08-02T10:03:26.763Z,22.93
2022-08-02T10:08:38.027Z,23.07
2022-08-02T10:13:42.087Z,23.17
2022-08-02T10:18:45.189Z,23.29
2022-08-02T10:23:50.021Z,23.34
2022-08-02T10:28:55.082Z,23.43
2022-08-02T10:33:59.836Z,23.56
2022-08-02T10:39:03.613Z,23.75
2022-08-02T10:44:07.671Z,23.96
2022-08-02T10:49:42.661Z,24.18
2022-08-02T10:54:51.608Z,24.25
2022-08-02T11:00:03.751Z,24.39
2022-08-02T11:05:09.992Z,24.51
2022-08-02T11:10:39.308Z,24.71
2022-08-02T11:15:52.231Z,24.97
2022-08-02T11:21:23.850Z,25.07
2022-08-02T11:26:56.727Z,24.66
2022-08-02T11:32:00.935Z,24.74
2022-08-02T11:37:03.653Z,25.18
2022-08-02T11:42:06.624Z,25.42
2022-08-02T11:47:10.882Z,25.69
2022-08-02T11:52:13.932Z,25.97
2022-08-02T11:57:20.268Z,26.26
2022-08-02T12:02:26.491Z,26.83
2022-08-02T12:07:35.357Z,27.45
2022-08-02T12:12:49.300Z,28.16
2022-08-02T12:18:11.010Z,28.88
2022-08-02T12:23:13.993Z,29.75
2022-08-02T12:28:18.586Z,30.32
2022-08-02T12:33:23.680Z,31.12
2022-08-02T12:38:26.610Z,32.45
2022-08-02T12:43:29.369Z,33.21
2022-08-02T12:48:38.434Z,33.36
2022-08-02T12:53:43.245Z,34.16
2022-08-02T12:58:50.250Z,33.84
2022-08-02T13:04:09.993Z,33.22
2022-08-02T13:09:17.645Z,32.82
2022-08-02T13:14:20.679Z,32.65
2022-08-02T13:19:24.827Z,32.60
2022-08-02T13:24:41.268Z,32.63
2022-08-02T13:29:50.583Z,32.60
2022-08-02T13:34:54.634Z,32.41
2022-08-02T13:40:19.840Z,32.25
2022-08-02T13:45:20.129Z,32.42
2022-08-02T13:50:25.536Z,32.90
2022-08-02T13:55:29.172Z,33.14
2022-08-02T14:00:35.683Z,32.87
2022-08-02T14:05:47.575Z,33.09
2022-08-02T14:10:52.573Z,33.06
2022-08-02T14:15:55.318Z,33.32
2022-08-02T14:21:02.324Z,33.01
2022-08-02T14:26:14.174Z,34.31
2022-08-02T14:31:29.882Z,37.01
2022-08-02T14:36:34.106Z,41.92
2022-08-02T14:41:59.570Z,42.03
2022-08-02T14:47:00.248Z,39.32
2022-08-02T14:52:04.748Z,41.61
2022-08-02T14:57:08.133Z,39.40
2022-08-02T15:02:13.578Z,36.49
2022-08-02T15:07:18.278Z,38.72
2022-08-02T15:12:21.172Z,39.06
2022-08-02T15:17:23.987Z,37.30
2022-08-02T15:22:28.155Z,35.99
2022-08-02T15:27:31.682Z,35.25
2022-08-02T15:32:34.402Z,35.34
2022-08-02T15:37:41.499Z,34.49
2022-08-02T15:42:44.737Z,33.86
2022-08-02T15:47:50.545Z,34.10
2022-08-02T15:52:55.070Z,34.41
2022-08-02T15:57:57.831Z,34.70
2022-08-02T16:03:00.758Z,36.39
2022-08-02T16:08:05.548Z,35.86
2022-08-02T16:13:26.026Z,34.27
2022-08-02T16:18:28.851Z,34.11
2022-08-02T16:23:58.804Z,32.75
2022-08-02T16:28:56.047Z,31.88
2022-08-02T16:33:58.866Z,31.50
2022-08-02T16:39:03.019Z,30.70
2022-08-02T16:44:06.113Z,30.15
2022-08-02T16:50:05.021Z,29.73
2022-08-02T16:54:33.038Z,29.53
2022-08-02T16:59:42.772Z,29.50
2022-08-02T17:04:46.598Z,29.36
2022-08-02T17:10:03.457Z,29.27
2022-08-02T17:16:07.900Z,29.16
2022-08-02T17:20:33.190Z,28.85
2022-08-02T17:25:41.675Z,28.62
2022-08-02T17:30:44.655Z,28.43
2022-08-02T17:35:52.901Z,28.68
2022-08-02T17:40:57.799Z,29.43
2022-08-02T17:46:02.493Z,29.03
2022-08-02T17:51:05.645Z,28.81
2022-08-02T17:56:10.638Z,28.61
2022-08-02T18:01:24.163Z,28.42
2022-08-02T18:06:27.208Z,28.17
2022-08-02T18:11:52.055Z,27.94
2022-08-02T18:16:54.436Z,27.68
2022-08-02T18:21:57.161Z,27.45
2022-08-02T18:27:01.251Z,27.26
2022-08-02T18:32:04.506Z,27.07
2022-08-02T18:37:07.279Z,26.77
2022-08-02T18:42:12.363Z,26.53
2022-08-02T18:47:20.401Z,26.31
2022-08-02T18:52:31.181Z,25.99
2022-08-02T18:58:17.864Z,25.59
2022-08-02T19:03:00.487Z,25.47
2022-08-02T19:08:06.005Z,25.27
2022-08-02T19:13:17.655Z,25.09
2022-08-02T19:18:26.942Z,24.98
2022-08-02T19:23:33.034Z,24.87
2022-08-02T19:28:39.308Z,24.81
2022-08-02T19:34:04.507Z,24.63
2022-08-02T19:39:05.689Z,24.53
2022-08-02T19:44:25.012Z,24.35
2022-08-02T19:49:40.036Z,24.18
2022-08-02T19:54:55.321Z,24.07
2022-08-02T20:00:00.360Z,23.94
2022-08-02T20:05:16.103Z,23.89
2022-08-02T20:10:24.596Z,23.80
2022-08-02T20:15:51.709Z,23.64
2022-08-02T20:20:53.366Z,23.50
2022-08-02T20:25:56.169Z,23.41
2022-08-02T20:31:07.019Z,23.35
2022-08-02T20:36:12.068Z,23.27
2022-08-02T20:41:21.440Z,23.16
2022-08-02T20:46:26.321Z,23.07
2022-08-02T20:51:33.442Z,22.99
2022-08-02T20:56:37.465Z,22.86
2022-08-02T21:01:41.708Z,22.78
2022-08-02T21:07:00.271Z,22.71
2022-08-02T21:12:03.163Z,22.60
2022-08-02T21:17:11.109Z,22.50
2022-08-02T21:22:14.407Z,22.42
2022-08-02T21:27:52.885Z,22.33
2022-08-02T21:32:41.909Z,22.26
2022-08-02T21:37:47.246Z,22.18
2022-08-02T21:42:50.133Z,22.13
2022-08-02T21:47:55.031Z,22.07
2022-08-02T21:52:57.969Z,21.98
2022-08-02T21:58:04.205Z,21.95
2022-08-02T22:03:23.039Z,21.87
2022-08-02T22:08:26.309Z,21.80
2022-08-02T22:13:29.118Z,21.76
2022-08-02T22:18:50.381Z,21.71
2022-08-02T22:23:55.451Z,21.51
2022-08-02T22:28:59.602Z,21.49
2022-08-02T22:34:26.557Z,21.37
2022-08-02T22:39:29.363Z,21.35
2022-08-02T22:44:32.233Z,21.18
2022-08-02T22:49:45.361Z,21.18
2022-08-02T22:54:55.759Z,21.12
2022-08-02T23:00:00.650Z,21.10
2022-08-02T23:05:05.353Z,21.03
2022-08-02T23:10:09.116Z,20.55
2022-08-02T23:15:12.307Z,20.48
2022-08-02T23:20:16.524Z,20.47
2022-08-02T23:25:19.536Z,20.41
2022-08-02T23:30:22.433Z,20.42
2022-08-02T23:35:26.583Z,20.32
2022-08-02T23:40:38.993Z,20.35
2022-08-02T23:45:45.412Z,20.38
2022-08-02T23:50:49.676Z,20.32
2022-08-02T23:55:52.406Z,20.35
